createdAt,value
2017-10-03T00:01:33.374Z,88.40
2017-10-03T00:04:01.508Z,88.30
2017-10-03T00:06:29.685Z,88.70
2017-10-03T00:08:57.852Z,89.20
2017-10-03T00:11:25.974Z,89.20
2017-10-03T00:13:54.117Z,89.30
2017-10-03T00:16:22.276Z,89.50
2017-10-03T00:18:50.397Z,89.60
2017-10-03T00:21:19.351Z,90.00
2017-10-03T00:23:47.494Z,90.00
2017-10-03T00:26:15.632Z,90.10
2017-10-03T00:28:44.534Z,90.00
2017-10-03T00:31:13.457Z,90.10
2017-10-03T00:33:41.625Z,90.10
2017-10-03T00:36:09.745Z,90.10
2017-10-03T00:38:37.926Z,90.40
2017-10-03T00:41:06.054Z,90.40
2017-10-03T00:43:34.192Z,90.50
2017-10-03T00:46:02.336Z,90.40
2017-10-03T00:48:30.495Z,90.50
2017-10-03T00:50:58.614Z,90.50
2017-10-03T00:53:26.745Z,90.30
2017-10-03T00:55:54.877Z,90.40
2017-10-03T00:58:23.029Z,90.40
2017-10-03T01:00:51.164Z,90.50
2017-10-03T01:03:19.304Z,90.50
2017-10-03T01:05:47.492Z,90.80
2017-10-03T01:08:15.650Z,90.80
2017-10-03T01:10:43.811Z,90.80
2017-10-03T01:13:11.941Z,91.10
2017-10-03T01:15:40.838Z,91.50
2017-10-03T01:18:08.970Z,91.40
2017-10-03T01:20:37.102Z,91.10
2017-10-03T01:23:05.235Z,91.10
2017-10-03T01:25:33.400Z,91.20
2017-10-03T01:28:01.523Z,91.60
2017-10-03T01:30:29.661Z,91.80
2017-10-03T01:32:57.795Z,91.60
2017-10-03T01:35:25.932Z,91.40
2017-10-03T01:38:05.859Z,91.30
2017-10-03T01:40:34.765Z,91.30
2017-10-03T01:43:03.659Z,91.20
2017-10-03T01:45:31.798Z,91.20
2017-10-03T01:47:59.940Z,91.20
2017-10-03T01:50:28.101Z,91.40
2017-10-03T01:52:56.225Z,91.30
2017-10-03T01:55:24.393Z,91.50
2017-10-03T01:57:52.531Z,91.30
2017-10-03T02:00:20.656Z,91.40
2017-10-03T02:02:48.793Z,91.60
2017-10-03T02:05:16.944Z,91.70
2017-10-03T02:07:45.082Z,91.70
2017-10-03T02:10:13.236Z,91.80
2017-10-03T02:12:41.378Z,92.20
2017-10-03T02:15:10.307Z,92.20
2017-10-03T02:17:38.446Z,92.20
2017-10-03T02:20:07.347Z,92.30
2017-10-03T02:22:35.480Z,92.20
2017-10-03T02:25:03.598Z,92.20
2017-10-03T02:27:32.508Z,92.20
2017-10-03T02:30:00.653Z,92.30
2017-10-03T02:32:28.779Z,92.40
2017-10-03T02:34:56.928Z,93.10
2017-10-03T02:37:25.051Z,91.30
2017-10-03T02:39:53.213Z,90.80
2017-10-03T02:42:22.109Z,91.30
2017-10-03T02:44:50.264Z,91.20
2017-10-03T02:47:18.396Z,91.60
2017-10-03T02:49:46.536Z,92.00
2017-10-03T02:52:14.681Z,92.30
2017-10-03T02:54:43.593Z,92.60
2017-10-03T02:57:11.752Z,92.60
2017-10-03T02:59:40.654Z,92.60
2017-10-03T03:02:08.775Z,92.60
2017-10-03T03:04:36.912Z,92.60
2017-10-03T03:07:05.808Z,92.20
2017-10-03T03:09:33.944Z,92.20
2017-10-03T03:12:02.079Z,92.10
2017-10-03T03:14:30.207Z,92.10
2017-10-03T03:16:58.335Z,91.90
2017-10-03T03:19:26.498Z,91.70
2017-10-03T03:21:54.628Z,91.80
2017-10-03T03:24:22.740Z,92.00
2017-10-03T03:26:50.888Z,91.60
2017-10-03T03:29:19.014Z,90.90
2017-10-03T03:31:48.696Z,91.20
2017-10-03T03:34:16.838Z,91.10
2017-10-03T03:36:44.972Z,90.40
2017-10-03T03:39:13.125Z,90.50
2017-10-03T03:41:42.036Z,90.70
2017-10-03T03:44:10.205Z,90.70
2017-10-03T03:46:38.340Z,90.90
2017-10-03T03:49:06.480Z,91.10
2017-10-03T03:51:34.612Z,90.30
2017-10-03T03:54:02.764Z,90.40
2017-10-03T03:56:30.890Z,90.60
2017-10-03T03:58:59.023Z,90.70
2017-10-03T04:01:27.936Z,91.00
2017-10-03T04:03:56.071Z,91.00
2017-10-03T04:06:24.987Z,90.70
2017-10-03T04:08:53.150Z,90.70
2017-10-03T04:11:22.076Z,90.50
2017-10-03T04:13:50.249Z,90.50
2017-10-03T04:16:18.372Z,90.30
2017-10-03T04:18:47.286Z,90.00
2017-10-03T04:21:15.426Z,90.00
2017-10-03T04:23:43.550Z,90.30
2017-10-03T04:26:11.680Z,90.20
2017-10-03T04:28:40.592Z,89.40
2017-10-03T04:31:09.494Z,89.20
2017-10-03T04:33:37.629Z,89.20
2017-10-03T04:36:06.524Z,89.40
2017-10-03T04:38:34.684Z,89.40
2017-10-03T04:41:03.580Z,88.20
2017-10-03T04:43:31.712Z,88.10
2017-10-03T04:45:59.868Z,89.50
2017-10-03T04:48:28.028Z,89.40
2017-10-03T04:50:56.158Z,89.20
2017-10-03T04:53:25.052Z,87.70
2017-10-03T04:55:53.994Z,87.50
2017-10-03T04:58:22.123Z,87.40
2017-10-03T05:00:50.275Z,87.50
2017-10-03T05:03:19.177Z,85.90
2017-10-03T05:05:48.064Z,86.00
2017-10-03T05:08:16.997Z,85.90
2017-10-03T05:10:45.140Z,85.90
2017-10-03T05:13:13.280Z,85.70
2017-10-03T05:15:41.403Z,85.40
2017-10-03T05:18:09.543Z,85.20
2017-10-03T05:20:37.692Z,86.30
2017-10-03T05:23:05.826Z,86.30
2017-10-03T05:25:34.613Z,86.10
2017-10-03T05:28:02.792Z,86.30
2017-10-03T05:30:30.930Z,86.20
2017-10-03T05:32:59.070Z,86.30
2017-10-03T05:35:27.228Z,86.40
2017-10-03T05:37:55.397Z,86.50
2017-10-03T05:40:23.528Z,86.50
2017-10-03T05:42:51.679Z,86.70
2017-10-03T05:45:20.596Z,85.90
2017-10-03T05:47:48.723Z,85.90
2017-10-03T05:50:17.637Z,86.50
2017-10-03T05:52:45.777Z,86.40
2017-10-03T05:55:14.688Z,87.90
2017-10-03T05:57:42.823Z,87.80
2017-10-03T06:00:10.944Z,87.30
2017-10-03T06:02:39.084Z,87.50
2017-10-03T06:05:07.979Z,87.70
2017-10-03T06:07:36.901Z,87.80
2017-10-03T06:10:05.058Z,87.80
2017-10-03T06:12:33.192Z,87.40
2017-10-03T06:15:01.332Z,87.70
2017-10-03T06:17:29.484Z,87.60
2017-10-03T06:19:57.629Z,87.20
2017-10-03T06:22:26.522Z,88.20
2017-10-03T06:24:54.721Z,88.10
2017-10-03T06:27:22.861Z,87.90
2017-10-03T06:29:51.756Z,88.10
2017-10-03T06:32:19.900Z,88.00
2017-10-03T06:34:48.067Z,88.20
2017-10-03T06:37:16.220Z,87.90
2017-10-03T06:39:44.367Z,87.10
2017-10-03T06:42:12.520Z,86.90
2017-10-03T06:44:40.670Z,86.70
2017-10-03T06:47:09.576Z,86.60
2017-10-03T06:49:37.702Z,86.60
2017-10-03T06:52:05.844Z,86.50
2017-10-03T06:54:33.968Z,86.70
2017-10-03T06:57:02.886Z,86.30
2017-10-03T06:59:31.044Z,86.20
2017-10-03T07:01:59.960Z,87.60
2017-10-03T07:04:28.855Z,88.20
2017-10-03T07:06:57.009Z,88.10
2017-10-03T07:09:25.160Z,88.70
2017-10-03T07:11:54.053Z,88.30
2017-10-03T07:14:22.971Z,88.20
2017-10-03T07:16:51.109Z,88.20
2017-10-03T07:19:20.031Z,87.50
2017-10-03T07:21:48.171Z,87.50
2017-10-03T07:24:17.107Z,87.90
2017-10-03T07:26:45.233Z,87.90
2017-10-03T07:29:14.141Z,87.10
2017-10-03T07:31:42.301Z,87.10
2017-10-03T07:34:11.195Z,87.60
2017-10-03T07:36:39.357Z,87.00
2017-10-03T07:39:08.275Z,87.00
2017-10-03T07:41:36.431Z,86.90
2017-10-03T07:44:05.351Z,87.00
2017-10-03T07:46:34.278Z,87.50
2017-10-03T07:49:02.418Z,87.40
2017-10-03T07:51:30.552Z,88.30
2017-10-03T07:53:58.721Z,87.00
2017-10-03T07:56:26.864Z,87.80
2017-10-03T07:58:55.042Z,87.30
2017-10-03T08:01:23.207Z,87.00
2017-10-03T08:03:51.991Z,85.90
2017-10-03T08:06:20.140Z,86.50
2017-10-03T08:08:48.301Z,85.10
2017-10-03T08:11:16.442Z,85.50
2017-10-03T08:13:44.619Z,85.30
2017-10-03T08:16:12.816Z,84.40
2017-10-03T08:18:40.996Z,84.00
2017-10-03T08:21:24.204Z,84.50
2017-10-03T08:23:52.360Z,84.50
2017-10-03T08:26:20.501Z,84.40
2017-10-03T08:28:49.445Z,85.50
2017-10-03T08:31:18.183Z,85.40
2017-10-03T08:33:47.144Z,84.20
2017-10-03T08:36:15.316Z,84.20
2017-10-03T08:38:43.486Z,83.70
2017-10-03T08:41:11.621Z,83.40
2017-10-03T08:43:39.795Z,82.00
2017-10-03T08:46:08.710Z,83.20
2017-10-03T08:48:36.867Z,83.20
2017-10-03T08:51:05.025Z,82.40
2017-10-03T08:53:34.407Z,83.70
2017-10-03T08:56:03.315Z,81.30
2017-10-03T08:58:31.460Z,81.20
2017-10-03T09:01:00.355Z,81.70
2017-10-03T09:03:29.313Z,80.40
2017-10-03T09:05:57.469Z,80.40
2017-10-03T09:08:25.626Z,79.60
2017-10-03T09:10:53.789Z,76.20
2017-10-03T09:13:21.929Z,76.50
2017-10-03T09:15:50.087Z,78.30
2017-10-03T09:18:18.239Z,77.50
2017-10-03T09:20:46.420Z,79.60
2017-10-03T09:23:14.587Z,81.00
2017-10-03T09:25:42.730Z,81.00
2017-10-03T09:28:10.860Z,77.10
2017-10-03T09:30:39.029Z,75.60
2017-10-03T09:33:07.172Z,73.80
2017-10-03T09:35:35.317Z,75.50
2017-10-03T09:38:04.462Z,72.80
2017-10-03T09:40:32.618Z,72.70
2017-10-03T09:43:01.648Z,74.60
2017-10-03T09:45:29.822Z,73.70
2017-10-03T09:47:57.983Z,72.40
2017-10-03T09:50:26.128Z,70.50
2017-10-03T09:52:55.067Z,69.80
2017-10-03T09:55:23.257Z,69.80
2017-10-03T09:57:51.416Z,71.60
2017-10-03T10:00:19.562Z,69.00
2017-10-03T10:02:47.752Z,69.30
2017-10-03T10:05:15.893Z,70.30
2017-10-03T10:07:44.053Z,70.50
2017-10-03T10:10:12.189Z,68.80
2017-10-03T10:12:40.344Z,66.60
2017-10-03T10:15:08.498Z,66.00
2017-10-03T10:17:37.404Z,68.00
2017-10-03T10:20:05.583Z,67.90
2017-10-03T10:22:34.389Z,68.00
2017-10-03T10:25:04.309Z,66.20
2017-10-03T10:27:32.457Z,66.10
2017-10-03T10:30:00.626Z,64.40
2017-10-03T10:32:28.769Z,63.20
2017-10-03T10:34:56.938Z,65.30
2017-10-03T10:37:25.078Z,65.70
2017-10-03T10:39:53.346Z,63.70
2017-10-03T10:42:22.290Z,63.70
2017-10-03T10:44:50.433Z,63.70
2017-10-03T10:47:18.623Z,62.20
2017-10-03T10:49:46.770Z,62.00
2017-10-03T10:52:14.931Z,64.70
2017-10-03T10:54:43.123Z,64.10
2017-10-03T10:57:11.281Z,63.50
2017-10-03T10:59:39.452Z,64.20
2017-10-03T11:02:08.602Z,63.30
2017-10-03T11:04:37.550Z,65.80
2017-10-03T11:07:05.684Z,65.70
2017-10-03T11:09:34.595Z,62.00
2017-10-03T11:12:02.759Z,61.90
2017-10-03T11:14:30.915Z,61.20
2017-10-03T11:16:59.070Z,62.90
2017-10-03T11:19:27.972Z,59.00
2017-10-03T11:21:56.137Z,59.00
2017-10-03T11:24:32.741Z,60.20
2017-10-03T11:27:00.885Z,60.10
2017-10-03T11:29:29.041Z,61.00
2017-10-03T11:31:57.232Z,61.00
2017-10-03T11:34:26.120Z,61.00
2017-10-03T11:36:54.305Z,60.90
2017-10-03T11:39:22.466Z,61.20
2017-10-03T11:41:51.372Z,64.00
2017-10-03T11:44:19.534Z,63.90
2017-10-03T11:46:48.511Z,62.10
2017-10-03T11:49:16.653Z,62.10
2017-10-03T11:51:44.813Z,62.50
2017-10-03T11:54:12.960Z,63.20
2017-10-03T11:56:41.151Z,64.00
2017-10-03T11:59:09.292Z,63.70
2017-10-03T12:01:37.421Z,62.70
2017-10-03T12:04:07.011Z,64.00
2017-10-03T12:06:35.143Z,64.00
2017-10-03T12:09:03.304Z,59.50
2017-10-03T12:11:31.434Z,60.70
2017-10-03T12:13:59.598Z,60.30
2017-10-03T12:16:27.753Z,60.40
2017-10-03T12:18:55.894Z,60.10
2017-10-03T12:21:24.058Z,57.30
2017-10-03T12:23:52.202Z,57.50
2017-10-03T12:26:20.344Z,57.40
2017-10-03T12:28:48.517Z,56.10
2017-10-03T12:31:16.658Z,59.40
2017-10-03T12:33:44.788Z,56.70
2017-10-03T12:36:13.686Z,57.00
2017-10-03T12:38:42.630Z,57.00
2017-10-03T12:41:11.539Z,58.80
2017-10-03T12:43:39.684Z,58.80
2017-10-03T12:46:07.849Z,59.50
2017-10-03T12:48:35.991Z,59.30
2017-10-03T12:51:04.144Z,58.90
2017-10-03T12:53:32.283Z,57.70
2017-10-03T12:56:00.443Z,58.60
2017-10-03T12:58:28.606Z,58.10
2017-10-03T13:00:56.732Z,57.70
2017-10-03T13:03:25.658Z,57.60
2017-10-03T13:05:53.817Z,57.40
2017-10-03T13:08:22.723Z,54.50
2017-10-03T13:10:50.887Z,54.40
2017-10-03T13:13:19.093Z,53.60
2017-10-03T13:15:48.011Z,53.80
2017-10-03T13:18:16.190Z,53.80
2017-10-03T13:20:45.131Z,53.60
2017-10-03T13:23:13.314Z,53.60
2017-10-03T13:25:41.523Z,55.80
2017-10-03T13:28:09.752Z,56.00
2017-10-03T13:30:37.965Z,56.60
2017-10-03T13:33:06.116Z,57.40
2017-10-03T13:35:34.310Z,56.80
2017-10-03T13:38:02.540Z,56.70
2017-10-03T13:40:30.718Z,56.70
2017-10-03T13:42:58.913Z,57.50
2017-10-03T13:45:27.929Z,58.70
2017-10-03T13:47:56.873Z,58.60
2017-10-03T13:50:25.066Z,58.60
2017-10-03T13:52:53.306Z,57.20
2017-10-03T13:55:21.496Z,59.00
2017-10-03T13:57:49.682Z,59.70
2017-10-03T14:00:17.906Z,57.10
2017-10-03T14:02:46.085Z,57.30
2017-10-03T14:05:14.266Z,59.10
2017-10-03T14:07:42.443Z,57.20
2017-10-03T14:10:10.598Z,53.50
2017-10-03T14:12:38.773Z,45.20
2017-10-03T14:15:06.931Z,38.80
2017-10-03T14:17:35.089Z,39.20
2017-10-03T14:20:03.295Z,36.70
2017-10-03T14:22:31.483Z,39.40
2017-10-03T14:24:59.662Z,40.30
2017-10-03T14:27:27.832Z,41.60
2017-10-03T14:29:55.996Z,42.70
2017-10-03T14:32:24.146Z,43.50
2017-10-03T14:34:52.300Z,45.60
2017-10-03T14:37:21.231Z,44.40
2017-10-03T14:39:49.400Z,44.10
2017-10-03T14:42:17.566Z,41.30
2017-10-03T14:44:46.294Z,38.30
2017-10-03T14:47:14.494Z,36.60
2017-10-03T14:49:42.675Z,34.50
2017-10-03T14:52:11.656Z,32.60
2017-10-03T14:54:40.722Z,31.50
2017-10-03T14:57:08.932Z,31.40
2017-10-03T14:59:37.899Z,30.70
2017-10-03T15:02:06.887Z,33.20
2017-10-03T15:04:35.115Z,33.10
2017-10-03T15:07:04.537Z,34.30
2017-10-03T15:09:32.762Z,36.20
2017-10-03T15:12:01.804Z,39.20
2017-10-03T15:14:30.081Z,39.20
2017-10-03T15:16:58.389Z,40.50
2017-10-03T15:19:27.354Z,43.60
2017-10-03T15:21:56.145Z,43.50
2017-10-03T15:24:24.357Z,44.20
2017-10-03T15:26:52.551Z,45.20
2017-10-03T15:29:20.743Z,46.00
2017-10-03T15:31:48.962Z,45.90
2017-10-03T15:34:18.695Z,44.70
2017-10-03T15:36:46.965Z,44.70
2017-10-03T15:39:15.193Z,43.10
2017-10-03T15:41:44.175Z,42.60
2017-10-03T15:44:12.435Z,44.50
2017-10-03T15:46:41.926Z,46.50
2017-10-03T15:49:10.090Z,46.40
2017-10-03T15:51:38.277Z,47.60
2017-10-03T15:54:06.813Z,48.20
2017-10-03T15:56:35.814Z,50.00
2017-10-03T15:59:04.776Z,50.90
2017-10-03T16:01:34.296Z,50.90
2017-10-03T16:04:04.052Z,50.10
2017-10-03T16:06:32.281Z,50.10
2017-10-03T16:09:01.268Z,50.90
2017-10-03T16:11:29.404Z,50.90
2017-10-03T16:13:57.569Z,52.00
2017-10-03T16:16:25.793Z,50.70
2017-10-03T16:18:54.742Z,51.00
2017-10-03T16:21:22.887Z,50.80
2017-10-03T16:23:51.062Z,51.10
2017-10-03T16:26:19.223Z,51.40
2017-10-03T16:28:47.407Z,52.20
2017-10-03T16:31:16.419Z,51.20
2017-10-03T16:33:44.623Z,51.60
2017-10-03T16:36:12.787Z,52.80
2017-10-03T16:38:41.727Z,52.90
2017-10-03T16:41:09.846Z,53.40
2017-10-03T16:43:38.225Z,54.40
2017-10-03T16:46:06.812Z,54.10
2017-10-03T16:48:34.983Z,54.50
2017-10-03T16:51:03.151Z,53.60
2017-10-03T16:53:32.713Z,55.80
2017-10-03T16:56:00.924Z,55.70
2017-10-03T16:58:29.101Z,56.20
2017-10-03T17:00:57.249Z,56.00
2017-10-03T17:03:25.390Z,56.00
2017-10-03T17:05:53.568Z,56.00
2017-10-03T17:08:21.731Z,56.20
2017-10-03T17:10:50.123Z,57.00
2017-10-03T17:13:18.298Z,57.50
2017-10-03T17:15:46.430Z,57.00
2017-10-03T17:18:14.609Z,57.90
2017-10-03T17:20:42.793Z,58.40
2017-10-03T17:23:10.933Z,58.80
2017-10-03T17:25:39.854Z,59.60
2017-10-03T17:28:08.013Z,59.50
2017-10-03T17:30:36.193Z,59.20
2017-10-03T17:56:34.020Z,63.00
2017-10-03T17:59:02.511Z,63.00
2017-10-03T18:01:30.660Z,63.30
2017-10-03T18:03:58.799Z,63.00
2017-10-03T18:06:28.668Z,63.70
2017-10-03T18:08:58.495Z,63.60
2017-10-03T18:11:27.439Z,63.60
2017-10-03T18:13:57.271Z,63.60
2017-10-03T18:16:27.093Z,63.80
2017-10-03T18:18:55.314Z,63.70
2017-10-03T18:21:24.384Z,64.00
2017-10-03T18:23:52.799Z,64.10
2017-10-03T18:26:20.958Z,64.50
2017-10-03T18:28:49.942Z,64.80
2017-10-03T18:31:18.902Z,64.80
2017-10-03T18:33:47.972Z,64.50
2017-10-03T18:36:17.075Z,64.50
2017-10-03T18:38:45.220Z,64.50
2017-10-03T18:41:13.395Z,65.00
2017-10-03T18:43:41.556Z,65.10
2017-10-03T18:46:11.654Z,65.50
2017-10-03T18:48:41.069Z,65.50
2017-10-03T18:51:09.679Z,65.90
2017-10-03T18:53:39.348Z,66.10
2017-10-03T18:56:09.417Z,66.70
2017-10-03T18:58:37.835Z,67.00
2017-10-03T19:01:06.962Z,67.00
2017-10-03T19:03:35.277Z,67.20
2017-10-03T19:06:03.466Z,66.90
2017-10-03T19:08:31.659Z,67.50
2017-10-03T19:10:59.828Z,67.90
2017-10-03T19:13:29.109Z,68.60
2017-10-03T19:15:57.839Z,68.70
2017-10-03T19:18:27.590Z,68.50
2017-10-03T19:20:56.214Z,68.10
2017-10-03T19:23:25.129Z,68.20
2017-10-03T19:25:54.638Z,68.20
2017-10-03T19:28:23.200Z,68.30
2017-10-03T19:30:51.430Z,69.30
2017-10-03T19:33:19.886Z,70.50
2017-10-03T19:35:48.061Z,69.60
2017-10-03T19:38:16.362Z,70.00
2017-10-03T19:40:44.536Z,70.30
2017-10-03T19:43:12.709Z,70.70
2017-10-03T19:45:40.874Z,70.10
2017-10-03T19:48:09.043Z,69.90
2017-10-03T19:50:37.209Z,69.60
2017-10-03T19:53:06.530Z,70.80
2017-10-03T19:55:35.096Z,70.40
2017-10-03T19:58:03.334Z,70.20
2017-10-03T20:00:32.337Z,69.90
2017-10-03T20:03:00.753Z,69.90
2017-10-03T20:05:28.876Z,69.80
2017-10-03T20:07:57.038Z,69.80
2017-10-03T20:10:27.064Z,70.30
2017-10-03T20:12:56.110Z,70.40
2017-10-03T20:15:24.298Z,70.40
2017-10-03T20:17:52.455Z,71.20
2017-10-03T20:20:21.286Z,70.90
2017-10-03T20:22:49.427Z,71.10
2017-10-03T20:25:17.609Z,71.70
2017-10-03T20:27:45.755Z,71.30
2017-10-03T20:30:14.006Z,70.70
2017-10-03T20:32:42.144Z,72.10
2017-10-03T20:35:11.151Z,72.10
2017-10-03T20:37:40.046Z,71.60
2017-10-03T20:40:08.280Z,71.50
2017-10-03T20:42:36.817Z,71.40
2017-10-03T20:45:05.015Z,71.50
2017-10-03T20:47:33.957Z,72.30
2017-10-03T20:50:02.881Z,72.00
2017-10-03T20:52:32.147Z,72.00
2017-10-03T20:55:01.244Z,71.70
2017-10-03T20:57:30.388Z,71.20
2017-10-03T21:00:00.379Z,71.20
2017-10-03T21:02:29.207Z,71.10
2017-10-03T21:04:57.591Z,70.90
2017-10-03T21:07:26.546Z,70.90
2017-10-03T21:09:54.702Z,71.50
2017-10-03T21:12:22.862Z,71.00
2017-10-03T21:14:51.037Z,70.80
2017-10-03T21:17:21.067Z,70.90
2017-10-03T21:19:49.246Z,70.90
2017-10-03T21:22:17.389Z,71.30
2017-10-03T21:24:46.031Z,71.10
2017-10-03T21:27:14.161Z,71.20
2017-10-03T21:29:42.323Z,71.10
2017-10-03T21:32:11.265Z,71.00
2017-10-03T21:34:39.400Z,71.10
2017-10-03T21:37:07.545Z,70.90
2017-10-03T21:39:36.478Z,71.20
2017-10-03T21:42:16.535Z,71.10
2017-10-03T21:44:44.893Z,72.40
2017-10-03T21:47:13.030Z,72.50
2017-10-03T21:49:42.055Z,71.20
2017-10-03T21:52:10.212Z,72.70
2017-10-03T21:54:39.110Z,72.20
2017-10-03T21:57:07.243Z,72.10
2017-10-03T21:59:35.406Z,72.60
2017-10-03T22:02:03.541Z,72.40
2017-10-03T22:04:31.688Z,73.70
2017-10-03T22:06:59.828Z,73.70
2017-10-03T22:09:27.978Z,73.20
2017-10-03T22:11:56.874Z,73.30
2017-10-03T22:14:25.042Z,73.40
2017-10-03T22:16:53.190Z,74.00
2017-10-03T22:19:21.333Z,74.10
2017-10-03T22:21:51.466Z,73.10
2017-10-03T22:24:19.626Z,73.10
2017-10-03T22:26:48.555Z,73.50
2017-10-03T22:29:16.668Z,73.40
2017-10-03T22:31:44.800Z,72.70
2017-10-03T22:34:12.965Z,72.70
2017-10-03T22:36:41.117Z,72.30
2017-10-03T22:39:09.235Z,72.30
2017-10-03T22:41:37.397Z,72.00
2017-10-03T22:44:06.214Z,72.80
2017-10-03T22:46:34.335Z,72.90
2017-10-03T22:49:02.653Z,72.40
2017-10-03T22:51:36.608Z,72.90
2017-10-03T22:54:05.521Z,72.20
2017-10-03T22:56:34.120Z,72.20
2017-10-03T22:59:02.729Z,71.90
2017-10-03T23:01:30.965Z,72.50
2017-10-03T23:04:00.138Z,72.50
2017-10-03T23:06:28.265Z,72.40
2017-10-03T23:08:56.400Z,72.20
2017-10-03T23:11:24.534Z,72.20
2017-10-03T23:13:53.459Z,72.60
2017-10-03T23:16:21.612Z,72.50
2017-10-03T23:18:51.246Z,72.70
2017-10-03T23:21:19.495Z,72.60
2017-10-03T23:23:47.637Z,72.70
2017-10-03T23:26:15.792Z,72.80
2017-10-03T23:28:43.920Z,72.90
2017-10-03T23:31:12.073Z,72.90
2017-10-03T23:33:40.971Z,73.10
2017-10-03T23:36:09.156Z,73.10
2017-10-03T23:38:37.289Z,73.20
2017-10-03T23:41:05.418Z,73.20
2017-10-03T23:43:33.589Z,73.30
2017-10-03T23:46:02.932Z,73.00
2017-10-03T23:48:31.090Z,73.00
2017-10-03T23:50:59.238Z,72.30
2017-10-03T23:53:27.401Z,73.00
2017-10-03T23:55:55.529Z,73.50
2017-10-03T23:58:23.675Z,73.40
